Time;durP1;ratioP1;P1;durP2;ratioP2;P2;SDS_P1;SDS_P2;PMS_P1;PMS_P2;Temp;Humidity;BMP_temperature;BMP_pressure;BME280_temperature;BME280_humidity;BME280_pressure;Samples;Min_cycle;Max_cycle;Signal;HPM_P1;HPM_P2
2021/03/25 06:32:17;;;;;;;64.27;29.85;;;;;;;5.60;68.66;100847.16;1768170;77;26741;-63
2021/03/25 06:34:49;;;;;;;71.15;31.42;;;;;;;5.67;68.72;100847.42;1738275;81;25716;-63
2021/03/25 06:37:39;;;;;;;64.65;31.95;;;;;;;5.73;68.55;100845.84;1787281;79;25270;-62
2021/03/25 06:40:25;;;;;;;61.65;30.12;;;;;;;5.76;68.56;100837.27;1784520;80;25252;-63
2021/03/25 06:43:15;;;;;;;66.12;30.92;;;;;;;5.83;68.56;100841.05;1787937;80;25285;-64
2021/03/25 06:45:59;;;;;;;59.13;28.62;;;;;;;5.91;68.47;100848.61;1766298;78;25703;-64
2021/03/25 06:48:31;;;;;;;61.90;29.23;;;;;;;5.97;68.46;100848.11;1786668;79;25905;-63
2021/03/25 06:50:58;;;;;;;59.13;27.95;;;;;;;6.02;68.27;100847.32;1773236;80;25658;-64
2021/03/25 06:53:33;;;;;;;56.42;27.45;;;;;;;6.06;67.96;100855.94;1740780;80;25617;-64
2021/03/25 06:56:09;;;;;;;57.60;28.35;;;;;;;6.09;67.76;100858.06;1773256;80;25554;-63
2021/03/25 06:58:47;;;;;;;58.63;28.47;;;;;;;6.15;67.82;100859.70;1770672;79;25643;-63
2021/03/25 07:01:35;;;;;;;55.92;27.10;;;;;;;6.21;67.47;100859.17;1772306;79;25806;-64
2021/03/25 07:04:10;;;;;;;57.88;30.85;;;;;;;6.26;67.27;100855.70;1786909;80;25509;-64
2021/03/25 07:06:37;;;;;;;58.87;29.92;;;;;;;6.28;67.16;100862.44;1780407;80;26241;-64
2021/03/25 07:09:05;;;;;;;55.08;27.85;;;;;;;6.34;66.82;100861.89;1791011;79;25471;-64
2021/03/25 07:11:33;;;;;;;56.77;26.42;;;;;;;6.38;67.02;100864.31;1761294;80;25551;-63
2021/03/25 07:14:07;;;;;;;54.38;25.68;;;;;;;6.42;66.81;100865.41;1774149;80;25914;-63
2021/03/25 07:16:47;;;;;;;54.80;25.45;;;;;;;6.48;66.67;100867.55;1751347;81;25584;-62
2021/03/25 07:19:20;;;;;;;59.03;25.10;;;;;;;6.54;66.31;100865.16;1751488;81;31394;-63
2021/03/25 07:21:50;;;;;;;48.65;24.45;;;;;;;6.59;66.23;100861.13;1751273;81;25309;-62
2021/03/25 07:24:34;;;;;;;53.08;24.75;;;;;;;6.64;66.37;100860.30;1751396;81;25510;-63
2021/03/25 07:27:24;;;;;;;47.27;23.57;;;;;;;6.71;66.10;100860.31;1751719;80;26054;-63
2021/03/25 07:30:04;;;;;;;44.73;21.60;;;;;;;6.78;65.98;100868.11;1774804;80;25490;-63
2021/03/25 07:32:39;;;;;;;51.28;23.27;;;;;;;6.84;65.31;100854.91;1804570;77;25703;-62
2021/03/25 07:35:40;;;;;;;47.35;22.93;;;;;;;6.88;64.72;100864.08;1801216;79;25240;-62
2021/03/25 07:38:35;;;;;;;53.00;24.18;;;;;;;6.94;64.54;100867.56;1827377;77;25491;-62
2021/03/25 07:41:07;;;;;;;47.58;22.80;;;;;;;6.99;64.46;100862.17;1841457;77;26554;-63
2021/03/25 07:44:03;;;;;;;47.95;22.35;;;;;;;7.07;64.75;100863.52;1841265;77;25583;-63
2021/03/25 07:46:47;;;;;;;43.05;21.45;;;;;;;7.15;64.29;100864.32;1812090;77;25549;-62
2021/03/25 07:49:21;;;;;;;40.52;20.50;;;;;;;7.20;63.88;100867.52;1786744;80;25324;-62
2021/03/25 07:51:56;;;;;;;37.53;20.05;;;;;;;7.27;63.58;100858.62;1815718;77;25414;-63
2021/03/25 07:54:41;;;;;;;48.28;20.75;;;;;;;7.33;62.97;100866.16;1841468;77;25750;-62
2021/03/25 07:57:25;;;;;;;44.20;21.45;;;;;;;7.38;63.03;100862.11;1841364;77;25495;-63
2021/03/25 07:59:56;;;;;;;38.70;21.07;;;;;;;7.45;62.90;100861.28;1786653;80;25458;-63
2021/03/25 08:02:39;;;;;;;49.25;20.85;;;;;;;7.52;62.74;100860.44;1795682;78;25529;-62
2021/03/25 08:05:29;;;;;;;44.45;20.92;;;;;;;7.59;62.46;100858.26;1819034;78;25319;-63
2021/03/25 08:08:00;;;;;;;44.85;22.52;;;;;;;7.66;62.44;100864.17;1808925;77;25698;-65
2021/03/25 08:10:43;;;;;;;35.38;19.65;;;;;;;7.73;61.88;100860.37;1801978;78;25765;-63
2021/03/25 08:13:30;;;;;;;41.68;20.85;;;;;;;7.77;61.49;100864.94;1818965;78;25549;-63
2021/03/25 08:16:10;;;;;;;40.85;21.10;;;;;;;7.85;61.69;100865.71;1818856;78;25169;-64
2021/03/25 08:18:57;;;;;;;;;;;;;;;7.92;61.28;100864.06;1824620;78;25277;-64
2021/03/25 08:22:16;;;;;;;39.05;18.98;;;;;;;7.99;61.02;100866.45;1780322;80;25913;-63
2021/03/25 08:25:09;;;;;;;37.95;21.23;;;;;;;8.04;60.59;100868.58;1740598;82;25756;-63
2021/03/25 08:27:53;;;;;;;41.13;21.75;;;;;;;8.11;60.29;100872.31;1723573;82;25505;-63
2021/03/25 08:30:37;;;;;;;44.75;23.18;;;;;;;8.17;60.25;100860.95;1783057;80;25438;-64
2021/03/25 08:33:44;;;;;;;44.08;22.85;;;;;;;8.19;59.42;100867.69;1749691;80;25718;-63
2021/03/25 08:36:24;;;;;;;48.73;23.57;;;;;;;8.19;59.23;100865.55;1737795;80;26896;-64
2021/03/25 08:39:21;;;;;;;45.15;23.38;;;;;;;8.27;59.24;100866.83;1728940;80;25579;-64
2021/03/25 08:42:18;;;;;;;39.95;22.67;;;;;;;8.33;59.08;100870.56;1749204;82;25643;-63
2021/03/25 08:45:06;;;;;;;45.03;23.70;;;;;;;8.37;59.01;100867.56;1750085;82;25519;-64
2021/03/25 08:47:44;;;;;;;43.55;23.45;;;;;;;8.48;58.72;100867.00;1740742;82;25578;-64
2021/03/25 08:50:51;;;;;;;42.17;23.83;;;;;;;8.53;58.46;100869.66;1747227;82;26002;-63
2021/03/25 08:53:29;;;;;;;41.20;21.82;;;;;;;8.59;58.54;100864.47;1741842;81;25283;-64
2021/03/25 08:55:59;;;;;;;42.30;22.45;;;;;;;8.68;57.95;100866.02;1718727;83;25290;-64
2021/03/25 08:58:33;;;;;;;43.33;23.67;;;;;;;8.81;57.83;100865.93;1720278;83;25634;-63
2021/03/25 09:01:04;;;;;;;42.48;22.85;;;;;;;8.95;58.12;100858.77;1719605;83;25536;-64
2021/03/25 09:03:38;;;;;;;41.02;22.00;;;;;;;9.14;57.28;100859.41;1720319;83;25779;-64
2021/03/25 09:06:24;;;;;;;39.18;22.20;;;;;;;9.22;57.28;100866.09;1720219;83;25279;-64
2021/03/25 09:08:56;;;;;;;39.85;22.67;;;;;;;9.37;56.92;100864.59;1721453;80;25551;-63
2021/03/25 09:11:22;;;;;;;39.38;21.97;;;;;;;9.47;56.33;100865.03;1736465;80;25523;-62
2021/03/25 09:13:59;;;;;;;42.95;22.98;;;;;;;9.57;56.15;100862.21;1743768;82;25491;-64
2021/03/25 09:16:37;;;;;;;47.88;23.70;;;;;;;9.64;55.86;100859.95;1720061;83;25729;-64
2021/03/25 09:19:09;;;;;;;47.30;23.75;;;;;;;9.72;55.75;100862.03;1699711;83;25533;-64
2021/03/25 09:21:35;;;;;;;42.80;23.60;;;;;;;9.84;55.75;100862.96;1717512;83;25536;-63
2021/03/25 09:24:07;;;;;;;44.48;23.38;;;;;;;9.96;55.42;100869.30;1720069;82;25481;-64
2021/03/25 09:26:57;;;;;;;44.38;23.92;;;;;;;10.03;54.83;100868.38;1720155;83;25219;-64
2021/03/25 09:29:32;;;;;;;44.40;23.38;;;;;;;10.09;54.71;100870.46;1720142;83;25748;-63
2021/03/25 09:32:05;;;;;;;44.05;23.07;;;;;;;10.20;54.71;100866.53;1729685;81;25626;-64
2021/03/25 09:34:50;;;;;;;44.58;23.47;;;;;;;10.31;53.97;100867.18;1754220;81;25647;-63
2021/03/25 09:37:24;;;;;;;45.33;24.37;;;;;;;10.37;53.84;100865.22;1754070;81;25616;-63
2021/03/25 09:40:14;;;;;;;45.78;26.07;;;;;;;10.35;52.78;100864.19;1754229;81;25683;-63
2021/03/25 09:43:12;;;;;;;43.68;23.67;;;;;;;10.51;53.22;100860.70;1848965;76;34735;-63
2021/03/25 09:45:39;;;;;;;42.67;25.20;;;;;;;10.74;53.61;100865.72;1818854;78;25529;-63
2021/03/25 09:48:06;;;;;;;48.95;26.52;;;;;;;10.94;52.81;100860.52;1819019;78;25948;-62
2021/03/25 09:50:34;;;;;;;47.17;25.48;;;;;;;11.05;52.52;100855.75;1818894;78;25741;-62
2021/03/25 09:53:16;;;;;;;46.73;24.87;;;;;;;11.17;52.58;100849.86;1817641;78;25607;-63
2021/03/25 09:56:06;;;;;;;49.63;26.25;;;;;;;11.36;52.02;100844.35;1808492;77;25537;-65
2021/03/25 09:58:48;;;;;;;44.50;25.75;;;;;;;11.44;51.56;100847.72;1801685;79;25569;-64
2021/03/25 10:01:56;;;;;;;51.10;27.35;;;;;;;11.59;51.43;100850.13;1819118;77;26620;-65
2021/03/25 10:04:32;;;;;;;50.70;27.75;;;;;;;11.74;51.17;100850.90;1819162;78;25606;-63
2021/03/25 10:07:14;;;;;;;52.25;28.10;;;;;;;11.82;50.66;100854.82;1819333;78;25220;-65
2021/03/25 10:09:55;;;;;;;48.70;28.27;;;;;;;12.06;50.48;100855.39;1806408;78;25505;-63
2021/03/25 10:12:54;;;;;;;50.80;28.10;;;;;;;12.23;49.87;100855.30;1790566;77;25577;-63
2021/03/25 10:15:42;;;;;;;52.17;29.67;;;;;;;12.27;48.68;100848.15;1785731;80;25894;-64
2021/03/25 10:18:17;;;;;;;45.63;28.15;;;;;;;12.21;48.52;100863.75;1786038;80;25597;-64
2021/03/25 10:21:05;;;;;;;52.75;29.23;;;;;;;12.27;49.05;100859.00;1786028;80;25537;-65
2021/03/25 10:23:54;;;;;;;50.60;29.12;;;;;;;12.37;49.09;100851.98;1787224;77;25591;-63
2021/03/25 10:26:32;;;;;;;51.80;30.40;;;;;;;12.61;49.42;100850.87;1794675;78;25514;-64
2021/03/25 10:29:13;;;;;;;50.25;28.65;;;;;;;13.17;49.26;100852.16;1819222;78;25691;-65
2021/03/25 10:31:53;;;;;;;50.00;29.40;;;;;;;13.38;48.80;100835.33;1819004;78;25813;-63
2021/03/25 10:34:40;;;;;;;47.58;28.47;;;;;;;13.49;47.74;100835.30;1815267;78;25528;-63
2021/03/25 10:37:27;;;;;;;48.48;29.07;;;;;;;13.47;47.29;100835.36;1819231;78;25260;-64
2021/03/25 10:40:23;;;;;;;57.05;31.37;;;;;;;13.49;47.23;100838.02;1822394;77;25264;-63
2021/03/25 10:43:18;;;;;;;49.03;30.57;;;;;;;13.50;46.55;100845.06;1818776;78;25865;-63
2021/03/25 10:45:58;;;;;;;51.48;30.10;;;;;;;13.72;46.93;100831.11;1817563;77;25577;-63
2021/03/25 10:48:38;;;;;;;51.48;30.48;;;;;;;13.88;46.29;100828.75;1813828;77;25296;-64
2021/03/25 10:51:15;;;;;;;53.70;30.68;;;;;;;13.96;46.25;100830.66;1828258;78;25312;-63
2021/03/25 10:53:50;;;;;;;55.70;30.52;;;;;;;14.17;46.49;100826.77;1825630;78;25472;-63
2021/03/25 10:56:40;;;;;;;49.40;29.55;;;;;;;14.38;45.64;100829.06;1806021;77;25859;-65
2021/03/25 10:59:17;;;;;;;52.78;32.55;;;;;;;14.48;45.38;100833.38;1815297;78;25712;-64
2021/03/25 11:01:55;;;;;;;52.65;31.90;;;;;;;14.47;43.87;100828.26;1827094;78;25560;-63
2021/03/25 11:04:26;;;;;;;57.23;32.08;;;;;;;14.30;43.87;100823.09;1804416;77;26449;-64
2021/03/25 11:06:53;;;;;;;58.20;32.08;;;;;;;13.96;43.28;100815.70;1799425;77;25574;-63
2021/03/25 11:09:28;;;;;;;57.53;32.63;;;;;;;13.53;42.91;100812.36;1804338;77;26533;-64
2021/03/25 11:12:06;;;;;;;53.23;31.15;;;;;;;13.24;42.82;100817.75;1817244;77;25950;-63
2021/03/25 11:14:40;;;;;;;47.35;28.95;;;;;;;12.97;42.64;100808.69;1822474;78;25519;-62
2021/03/25 11:17:31;;;;;;;50.48;30.12;;;;;;;13.34;43.38;100802.56;1827519;78;25506;-63
2021/03/25 11:20:05;;;;;;;45.88;29.60;;;;;;;14.15;42.55;100807.25;1827640;78;25599;-65
2021/03/25 11:22:33;;;;;;;52.85;32.28;;;;;;;15.07;43.34;100794.67;1803323;77;25686;-63
2021/03/25 11:25:09;;;;;;;48.80;31.50;;;;;;;15.34;41.94;100790.44;1793926;79;25904;-62
2021/03/25 11:27:36;;;;;;;52.30;33.13;;;;;;;15.27;42.60;100788.23;1795047;79;25299;-63
2021/03/25 11:30:23;;;;;;;54.00;32.40;;;;;;;15.24;42.55;100794.36;1795202;79;25436;-62
2021/03/25 11:32:50;;;;;;;53.38;32.33;;;;;;;15.21;42.66;100786.84;1795046;79;25493;-63
2021/03/25 11:35:31;;;;;;;54.50;31.85;;;;;;;15.21;42.18;100792.29;1767665;79;26011;-63
2021/03/25 11:38:18;;;;;;;51.33;32.28;;;;;;;14.98;41.64;100795.25;1795173;79;25597;-63
2021/03/25 11:40:47;;;;;;;49.75;31.68;;;;;;;14.81;41.93;100793.95;1811784;78;26267;-63
2021/03/25 11:43:19;;;;;;;52.55;32.05;;;;;;;14.98;42.72;100793.09;1792802;78;25362;-63
2021/03/25 11:45:49;;;;;;;50.92;32.28;;;;;;;15.31;42.57;100783.73;1792346;79;25580;-63
2021/03/25 11:48:25;;;;;;;48.52;31.20;;;;;;;15.55;42.58;100782.33;1792254;80;26645;-64
2021/03/25 11:50:56;;;;;;;53.00;33.70;;;;;;;15.76;41.53;100774.97;1810860;78;25524;-63
2021/03/25 11:53:34;;;;;;;49.23;31.60;;;;;;;15.79;41.10;100774.89;1824871;78;25597;-62
2021/03/25 11:56:02;;;;;;;51.83;31.12;;;;;;;16.25;41.34;100766.23;1801003;78;25565;-63
2021/03/25 11:58:29;;;;;;;55.40;33.05;;;;;;;16.93;41.65;100763.10;1819579;78;25622;-62
2021/03/25 12:01:16;;;;;;;54.38;33.13;;;;;;;17.33;40.03;100767.90;1824818;78;25674;-62
2021/03/25 12:03:55;;;;;;;52.23;33.67;;;;;;;17.61;40.30;100768.53;1824763;78;25501;-63
2021/03/25 12:06:29;;;;;;;48.28;32.15;;;;;;;17.72;39.10;100766.92;1825078;78;29137;-62
2021/03/25 12:09:13;;;;;;;54.35;34.53;;;;;;;17.62;38.89;100763.85;1824979;78;26084;-63
2021/03/25 12:11:44;;;;;;;49.67;32.73;;;;;;;17.34;38.47;100764.00;1824816;77;25541;-63
2021/03/25 12:14:11;;;;;;;48.33;32.93;;;;;;;17.07;38.40;100757.88;1854556;77;25763;-63
2021/03/25 12:16:38;;;;;;;57.25;34.90;;;;;;;16.88;38.79;100756.50;1836237;77;25496;-63
2021/03/25 12:19:07;;;;;;;55.40;34.43;;;;;;;16.58;38.56;100751.20;1817231;79;25553;-63
2021/03/25 12:21:38;;;;;;;50.30;32.63;;;;;;;16.38;38.63;100747.39;1817418;79;25533;-63
2021/03/25 12:24:07;;;;;;;52.38;32.83;;;;;;;16.36;39.22;100751.58;1817299;79;25466;-63
2021/03/25 12:26:33;;;;;;;50.75;32.90;;;;;;;16.41;39.58;100749.45;1814607;77;26574;-63
2021/03/25 12:29:03;;;;;;;51.58;33.28;;;;;;;16.63;40.21;100751.53;1800387;77;25664;-63
2021/03/25 12:31:33;;;;;;;53.68;33.02;;;;;;;16.88;38.84;100748.30;1800860;78;25286;-63
2021/03/25 12:34:00;;;;;;;52.05;33.63;;;;;;;17.08;37.81;100737.05;1805872;77;25516;-64
2021/03/25 12:36:28;;;;;;;53.30;35.00;;;;;;;17.16;37.82;100742.14;1843001;77;25632;-64
2021/03/25 12:38:55;;;;;;;51.75;34.10;;;;;;;17.33;37.94;100745.21;1792462;79;25968;-64
2021/03/25 12:41:35;;;;;;;55.23;34.30;;;;;;;17.25;36.96;100744.78;1803506;78;25593;-62
2021/03/25 12:44:03;;;;;;;52.17;33.45;;;;;;;17.07;37.47;100739.53;1818949;77;25592;-63
2021/03/25 12:46:30;;;;;;;50.63;32.40;;;;;;;16.89;37.20;100741.71;1806016;78;25493;-62
2021/03/25 12:48:57;;;;;;;50.88;32.48;;;;;;;16.99;37.99;100731.70;1803354;77;25788;-63
2021/03/25 12:51:25;;;;;;;48.75;32.13;;;;;;;17.25;38.76;100732.48;1795208;77;25665;-63
2021/03/25 12:53:52;;;;;;;51.10;33.50;;;;;;;17.74;38.70;100734.54;1791764;80;25653;-63
2021/03/25 12:56:35;;;;;;;50.33;33.67;;;;;;;17.92;37.36;100737.80;1791063;80;25589;-63
2021/03/25 13:01:43;;;;;;;52.05;35.40;;;;;;;17.12;36.10;100727.58;1881710;75;25514;-63
2021/03/25 13:04:10;;;;;;;53.78;35.90;;;;;;;16.74;36.75;100721.28;1855832;76;25638;-62
2021/03/25 13:06:37;;;;;;;50.98;33.30;;;;;;;16.75;37.49;100722.89;1802161;79;26366;-63
2021/03/25 13:09:05;;;;;;;52.80;35.90;;;;;;;17.16;38.26;100714.27;1821835;78;25684;-64
2021/03/25 13:11:32;;;;;;;56.83;37.83;;;;;;;17.43;37.42;100716.02;1803111;79;25487;-64
2021/03/25 13:13:59;;;;;;;56.73;35.63;;;;;;;17.70;37.15;100715.84;1787962;78;25535;-62
2021/03/25 13:16:27;;;;;;;49.05;34.63;;;;;;;17.60;35.12;100707.34;1770044;80;25553;-62
2021/03/25 13:18:53;;;;;;;54.83;34.45;;;;;;;17.19;34.85;100714.13;1765440;80;26694;-63
2021/03/25 13:21:23;;;;;;;51.80;35.20;;;;;;;16.80;35.37;100709.56;1765534;81;25753;-63
2021/03/25 13:23:49;;;;;;;50.52;34.58;;;;;;;16.69;36.21;100711.95;1765816;81;25472;-63
2021/03/25 13:26:16;;;;;;;50.45;33.88;;;;;;;16.80;36.16;100709.02;1765204;81;25324;-63
2021/03/25 13:28:45;;;;;;;59.40;38.02;;;;;;;16.87;37.00;100710.39;1765715;81;25281;-63
2021/03/25 13:31:14;;;;;;;61.63;38.42;;;;;;;17.25;37.19;100699.68;1765844;81;26758;-63
2021/03/25 13:33:41;;;;;;;51.02;34.18;;;;;;;17.49;36.24;100711.92;1765477;81;25272;-63
2021/03/25 13:36:10;;;;;;;52.78;35.03;;;;;;;17.60;37.10;100697.19;1765577;81;25572;-63
2021/03/25 13:38:36;;;;;;;48.70;33.67;;;;;;;17.99;36.83;100703.58;1814412;78;25670;-63
2021/03/25 13:41:04;;;;;;;52.45;33.90;;;;;;;17.85;33.92;100702.00;1780524;79;25625;-62
2021/03/25 13:43:34;;;;;;;48.58;34.45;;;;;;;17.41;34.41;100701.13;1792963;78;26716;-61
2021/03/25 13:46:02;;;;;;;51.50;34.35;;;;;;;17.11;34.68;100695.37;1818839;78;25698;-63
2021/03/25 13:48:28;;;;;;;46.35;34.00;;;;;;;16.89;34.83;100700.73;1820208;78;25559;-63
2021/03/25 13:50:59;;;;;;;53.70;35.75;;;;;;;16.70;35.42;100689.52;1799031;78;25540;-63
2021/03/25 13:53:27;;;;;;;53.05;35.10;;;;;;;16.60;35.80;100702.50;1787948;79;25532;-63
2021/03/25 13:55:53;;;;;;;52.27;34.63;;;;;;;16.70;36.66;100694.44;1779393;80;25701;-63
2021/03/25 13:58:25;;;;;;;49.48;33.60;;;;;;;17.07;36.97;100690.34;1779469;80;25737;-63
2021/03/25 14:00:52;;;;;;;55.43;36.25;;;;;;;17.03;35.96;100692.18;1779488;80;25534;-64
2021/03/25 14:03:21;;;;;;;54.85;35.40;;;;;;;16.85;35.92;100692.19;1788851;80;25652;-62
2021/03/25 14:05:48;;;;;;;53.50;34.50;;;;;;;16.73;36.34;100688.84;1785342;78;25546;-63
2021/03/25 14:08:15;;;;;;;57.03;35.80;;;;;;;16.61;35.81;100697.83;1797385;78;25775;-63
2021/03/25 14:10:42;;;;;;;60.00;36.45;;;;;;;16.11;34.61;100690.69;1799025;78;25661;-63
2021/03/25 14:13:12;;;;;;;53.25;35.78;;;;;;;15.66;36.03;100688.08;1804937;78;26187;-63
2021/03/25 14:15:43;;;;;;;50.17;35.05;;;;;;;15.38;36.17;100687.83;1801041;78;25605;-63
2021/03/25 14:18:14;;;;;;;54.38;35.38;;;;;;;15.28;37.59;100680.27;1793768;78;25401;-63
2021/03/25 14:20:41;;;;;;;51.35;34.30;;;;;;;15.61;37.74;100685.02;1797192;78;26625;-63
2021/03/25 14:23:09;;;;;;;59.80;35.60;;;;;;;15.78;38.06;100686.00;1794583;78;25557;-63
2021/03/25 14:25:40;;;;;;;49.23;34.00;;;;;;;15.93;37.96;100684.02;1782351;80;25466;-64
2021/03/25 14:28:09;;;;;;;54.23;35.88;;;;;;;16.02;38.01;100683.39;1782754;80;25513;-63
2021/03/25 14:30:36;;;;;;;54.80;35.50;;;;;;;16.26;37.81;100683.22;1783140;80;25286;-63
2021/03/25 14:33:05;;;;;;;54.83;35.33;;;;;;;16.36;37.69;100683.34;1782729;80;25799;-64
2021/03/25 14:35:35;;;;;;;51.17;33.57;;;;;;;16.41;37.52;100681.20;1782979;80;25280;-63
2021/03/25 14:38:03;;;;;;;56.50;35.92;;;;;;;16.61;37.67;100669.94;1788828;78;25554;-63
2021/03/25 14:40:31;;;;;;;57.17;35.13;;;;;;;16.80;37.21;100675.41;1804240;78;25565;-63
2021/03/25 14:42:58;;;;;;;52.65;35.05;;;;;;;16.78;36.93;100681.22;1805194;78;25501;-64
2021/03/25 14:45:28;;;;;;;56.40;37.63;;;;;;;16.48;36.01;100683.92;1803201;78;25903;-63
2021/03/25 14:47:55;;;;;;;55.67;35.95;;;;;;;16.06;36.21;100678.05;1831445;78;25327;-62
2021/03/25 14:50:23;;;;;;;54.40;36.55;;;;;;;15.62;36.32;100677.05;1832163;78;25521;-62
2021/03/25 14:52:50;;;;;;;52.20;34.30;;;;;;;15.18;36.75;100679.86;1832155;78;25441;-64
2021/03/25 14:55:20;;;;;;;49.10;34.95;;;;;;;14.88;37.48;100685.30;1832054;78;25635;-63
2021/03/25 14:57:46;;;;;;;57.90;37.00;;;;;;;14.73;38.03;100683.39;1832359;78;25898;-63
2021/03/25 15:00:21;;;;;;;50.43;33.67;;;;;;;14.57;38.04;100679.03;1830879;78;25562;-63
2021/03/25 15:02:48;;;;;;;55.52;34.60;;;;;;;14.20;38.07;100683.31;1774637;78;25444;-62
2021/03/25 15:05:16;;;;;;;55.80;35.15;;;;;;;13.93;38.70;100677.67;1766295;80;25642;-63
2021/03/25 15:07:43;;;;;;;53.58;34.45;;;;;;;13.78;39.27;100687.91;1766271;80;25448;-63
2021/03/25 15:10:15;;;;;;;59.33;35.65;;;;;;;13.65;39.41;100684.79;1766432;81;25818;-63
2021/03/25 15:12:43;;;;;;;52.73;33.48;;;;;;;13.53;39.89;100686.78;1784624;78;25438;-62
2021/03/25 15:15:15;;;;;;;61.90;36.28;;;;;;;13.40;40.07;100685.02;1784385;78;26191;-62
2021/03/25 15:17:41;;;;;;;54.98;33.90;;;;;;;13.29;40.26;100683.70;1782086;79;25522;-62
2021/03/25 15:20:12;;;;;;;54.33;34.10;;;;;;;13.20;40.52;100679.62;1768166;81;25524;-62
2021/03/25 15:22:38;;;;;;;54.18;34.63;;;;;;;13.15;40.89;100682.49;1775672;79;26553;-63
2021/03/25 15:25:10;;;;;;;63.25;35.48;;;;;;;13.11;40.89;100682.86;1788131;79;25601;-63
2021/03/25 15:27:37;;;;;;;61.37;35.30;;;;;;;13.04;40.88;100692.30;1786734;79;25624;-63
2021/03/25 15:30:06;;;;;;;58.73;34.13;;;;;;;12.99;40.96;100684.30;1780080;78;25539;-63
2021/03/25 15:32:32;;;;;;;57.93;33.83;;;;;;;12.94;41.18;100694.48;1770139;79;25595;-64
2021/03/25 15:34:59;;;;;;;54.38;33.35;;;;;;;12.88;41.50;100688.41;1799479;79;25770;-63
2021/03/25 15:37:26;;;;;;;56.73;34.80;;;;;;;12.85;41.52;100687.67;1798869;79;25513;-63
2021/03/25 15:39:53;;;;;;;55.95;34.55;;;;;;;12.83;41.71;100687.98;1794458;79;25482;-63
2021/03/25 15:42:19;;;;;;;54.80;34.45;;;;;;;12.78;41.88;100695.47;1784383;78;25557;-63
2021/03/25 15:44:46;;;;;;;50.35;31.40;;;;;;;12.74;42.14;100691.80;1786147;80;25411;-62
2021/03/25 15:47:13;;;;;;;54.80;35.33;;;;;;;12.70;42.10;100691.06;1816698;79;26154;-62
2021/03/25 15:49:40;;;;;;;58.30;35.63;;;;;;;12.66;42.22;100687.92;1805167;79;25553;-62
2021/03/25 15:52:08;;;;;;;58.83;35.10;;;;;;;12.58;42.24;100690.86;1795760;78;25596;-62
2021/03/25 15:54:35;;;;;;;59.25;34.78;;;;;;;12.51;42.69;100689.95;1789611;79;25565;-62
2021/03/25 15:57:02;;;;;;;58.75;37.08;;;;;;;12.44;42.72;100696.35;1812561;79;25437;-62
2021/03/25 15:59:29;;;;;;;63.60;36.53;;;;;;;12.38;42.84;100692.72;1784674;80;25712;-62
2021/03/25 16:01:56;;;;;;;57.88;36.13;;;;;;;12.30;42.91;100695.09;1787445;79;25501;-62
2021/03/25 16:04:23;;;;;;;56.30;36.35;;;;;;;12.23;43.45;100696.09;1789184;80;25316;-62
2021/03/25 16:06:49;;;;;;;58.23;35.15;;;;;;;12.13;43.58;100696.34;1802641;78;25264;-63
2021/03/25 16:09:16;;;;;;;57.27;34.38;;;;;;;12.07;43.54;100696.21;1789085;80;25333;-62
2021/03/25 16:11:43;;;;;;;59.70;34.05;;;;;;;12.00;43.71;100699.92;1821444;78;25767;-62
2021/03/25 16:14:12;;;;;;;57.33;35.33;;;;;;;11.92;43.90;100695.48;1821232;78;25776;-62
2021/03/25 16:16:39;;;;;;;65.42;36.98;;;;;;;11.87;43.96;100696.94;1819279;78;25730;-61
2021/03/25 16:19:06;;;;;;;85.40;44.38;;;;;;;11.82;43.96;100697.63;1815531;79;26314;-61
2021/03/25 16:21:33;;;;;;;108.87;53.83;;;;;;;11.77;44.10;100700.68;1755843;81;25530;-63
2021/03/25 16:23:59;;;;;;;86.75;46.88;;;;;;;11.70;44.26;100703.02;1786911;79;25770;-62
2021/03/25 16:26:28;;;;;;;79.92;43.95;;;;;;;11.65;44.38;100695.01;1778330;80;25648;-62
2021/03/25 16:28:54;;;;;;;64.82;38.90;;;;;;;11.59;44.43;100700.28;1778847;80;25567;-63
2021/03/25 16:31:21;;;;;;;56.80;35.10;;;;;;;11.54;44.49;100702.58;1791198;77;26294;-62
2021/03/25 16:33:48;;;;;;;59.13;33.30;;;;;;;11.49;44.64;100703.22;1820864;78;25497;-63
2021/03/25 16:36:15;;;;;;;56.53;34.43;;;;;;;11.43;44.86;100710.67;1788262;80;25810;-61
2021/03/25 16:38:43;;;;;;;58.87;35.33;;;;;;;11.36;45.04;100703.52;1821081;78;25513;-62
2021/03/25 16:41:10;;;;;;;53.92;33.60;;;;;;;11.30;45.05;100703.37;1818937;78;25468;-62
2021/03/25 16:43:40;;;;;;;54.77;34.83;;;;;;;11.25;45.24;100704.83;1773631;79;25523;-63
2021/03/25 16:46:12;;;;;;;61.30;34.27;;;;;;;11.19;45.40;100709.56;1811350;79;25576;-62
2021/03/25 16:48:39;;;;;;;54.30;33.08;;;;;;;11.14;45.47;100716.44;1823487;78;26604;-62
2021/03/25 16:51:10;;;;;;;53.50;32.88;;;;;;;11.09;45.63;100715.98;1810748;79;26215;-63
2021/03/25 16:53:37;;;;;;;56.90;34.05;;;;;;;11.04;45.72;100716.08;1823724;78;25568;-62
2021/03/25 16:56:07;;;;;;;53.92;35.38;;;;;;;10.98;46.07;100718.09;1823593;78;25266;-62
2021/03/25 16:58:34;;;;;;;55.92;35.00;;;;;;;10.95;45.98;100721.40;1824507;78;25445;-62
2021/03/25 17:01:02;;;;;;;57.75;34.03;;;;;;;10.90;46.25;100718.79;1811094;79;26230;-63
2021/03/25 17:03:29;;;;;;;55.43;35.40;;;;;;;10.86;46.26;100723.74;1823911;78;25298;-62
2021/03/25 17:05:56;;;;;;;52.90;33.88;;;;;;;10.80;46.35;100727.90;1823657;78;25601;-62
2021/03/25 17:08:28;;;;;;;55.43;32.17;;;;;;;10.74;46.75;100719.61;1800714;78;25674;-62
2021/03/25 17:10:57;;;;;;;56.53;32.83;;;;;;;10.68;46.91;100724.89;1804384;78;25624;-62
2021/03/25 17:13:28;;;;;;;57.95;32.88;;;;;;;10.60;46.93;100730.98;1823736;78;25862;-62
2021/03/25 17:15:55;;;;;;;58.28;35.13;;;;;;;10.50;47.06;100726.55;1823486;78;25605;-61
2021/03/25 17:18:22;;;;;;;60.00;36.08;;;;;;;10.41;47.00;100737.25;1796987;78;25313;-61
2021/03/25 17:20:50;;;;;;;54.08;31.93;;;;;;;10.31;47.01;100736.05;1794863;80;25235;-61
2021/03/25 17:23:21;;;;;;;50.80;31.52;;;;;;;10.22;47.12;100740.53;1794662;80;25227;-61
2021/03/25 17:25:49;;;;;;;46.40;29.55;;;;;;;10.13;47.51;100743.64;1795031;80;26702;-61
2021/03/25 17:28:21;;;;;;;48.80;30.50;;;;;;;10.02;47.10;100745.70;1802341;78;25269;-62
2021/03/25 17:30:50;;;;;;;52.93;33.25;;;;;;;9.91;47.38;100744.51;1808162;78;25299;-62
2021/03/25 17:33:17;;;;;;;61.20;33.58;;;;;;;9.78;47.58;100749.84;1775072;80;26075;-62
2021/03/25 17:35:44;;;;;;;55.63;31.10;;;;;;;9.64;48.25;100744.38;1787152;80;25521;-62
2021/03/25 17:38:13;;;;;;;54.30;32.78;;;;;;;9.51;48.70;100754.78;1786832;80;25775;-62
2021/03/25 17:40:42;;;;;;;58.55;33.60;;;;;;;9.37;48.80;100752.55;1787579;78;25325;-62
2021/03/25 17:43:10;;;;;;;55.25;32.30;;;;;;;9.23;48.96;100751.63;1795090;80;25333;-62
2021/03/25 17:45:41;;;;;;;59.00;31.65;;;;;;;9.11;49.09;100758.25;1809715;78;26252;-62
2021/03/25 17:48:12;;;;;;;55.63;32.70;;;;;;;8.97;49.34;100758.66;1785506;80;25633;-61
2021/03/25 17:50:39;;;;;;;58.58;33.80;;;;;;;8.81;49.51;100760.73;1787911;80;26908;-63
2021/03/25 17:53:06;;;;;;;60.48;35.95;;;;;;;8.65;49.67;100761.44;1788221;80;25553;-61
2021/03/25 17:55:34;;;;;;;62.65;37.42;;;;;;;8.47;50.08;100771.02;1805088;77;25651;-60
2021/03/25 17:58:02;;;;;;;64.75;37.45;;;;;;;8.31;50.24;100768.97;1788603;76;65201;-51
2021/03/25 18:00:35;;;;;;;63.67;39.10;;;;;;;8.19;50.65;100772.58;1638938;87;25680;-50
2021/03/25 18:10:48;;;;;;;58.02;34.08;;;;;;;7.75;51.74;100772.05;1686021;82;63345;-59
2021/03/25 18:13:29;;;;;;;55.03;30.97;;;;;;;7.64;51.70;100778.02;1736192;82;25585;-59
2021/03/25 18:16:00;;;;;;;65.78;34.55;;;;;;;7.54;51.90;100771.33;1721288;82;26707;-59
2021/03/25 18:18:30;;;;;;;56.70;35.17;;;;;;;7.42;52.26;100779.73;1695030;83;25521;-60
2021/03/25 18:21:00;;;;;;;59.50;34.08;;;;;;;7.29;51.98;100779.80;1704010;83;25610;-60
2021/03/25 18:23:28;;;;;;;61.08;34.98;;;;;;;7.19;52.34;100779.83;1666416;86;32372;-59